• Join FlightAware (Why Join?)
  • Login
  • US Flag 
03:07AM EDT


 

Airport Tracker/Info


-or-


 

Live Flight TrackerFlight Track Log ✈ SWA104 ✈ 28-Sep-2013 ✈ KSLC - KLAX

Flight Track Log - Related Links

Times and Time Zones

All times are in EDT time to prevent confusion due to time zone crossing. See the SWA104 flight status page for this flight to view local times or setup timezone preferences in your user account.

Time Position Orientation Groundspeed Altitude Reporting Facility
EDT Latitude Longitude Course Direction KTS MPH feet Rate Location/Type
11:57AM 40.7711 -111.9631 173° South 158 182 4,900  Level Salt Lake Center
11:57AM 40.7675 -111.9625 173° South 133 153 5,200 1,680 Climbing Salt Lake Center
11:58AM 40.7153 -111.9603 178° South 186 214 7,100 2,220 Climbing Salt Lake Center
11:59AM 40.6450 -111.9583 179° South 256 295 9,800 2,520 Climbing Salt Lake Center
12:00PM 40.5472 -111.9553 179° South 320 368 12,400 2,100 Climbing Salt Lake Center
12:01PM 40.4494 -111.9525 179° South 356 410 14,200 2,700 Climbing Salt Lake Center
12:02PM 40.3453 -111.9444 177° South 368 423 18,000 2,820 Climbing Salt Lake Center
12:03PM 40.2419 -111.9428 179° South 377 434 20,100 2,220 Climbing Salt Lake Center
12:04PM 40.1367 -111.9603 187° South 382 440 22,600 2,100 Climbing Salt Lake Center
12:05PM 40.0283 -111.9761 186° South 391 450 24,500 1,800 Climbing Salt Lake Center
12:06PM 39.8919 -111.9964 187° South 415 478 26,300 1,560 Climbing Salt Lake Center
12:07PM 39.7719 -112.0147 187° South 434 499 27,800 1,440 Climbing Salt Lake Center
12:08PM 39.6503 -112.0311 186° South 441 507 29,300 1,500 Climbing Salt Lake Center
12:09PM 39.5267 -112.0506 187° South 447 514 31,000 780 Climbing Salt Lake Center
12:10PM 39.4114 -112.1131 203° Southwest 453 521 31,000  Level Salt Lake Center
12:11PM 39.2975 -112.1822 205° Southwest 451 519 31,000 360 Level Salt Lake Center
12:12PM 39.1767 -112.2506 204° Southwest 438 504 31,800 1,020 Climbing Salt Lake Center
12:14PM 39.0725 -112.3261 209° Southwest 431 496 33,100 1,260 Climbing Salt Lake Center
12:15PM 38.9708 -112.4164 215° Southwest 441 507 34,400 1,320 Climbing Salt Lake Center
12:16PM 38.8508 -112.5217 214° Southwest 438 504 35,900 720 Climbing Salt Lake Center
12:17PM 38.7475 -112.6094 214° Southwest 445 512 36,000  Climbing Salt Lake Center
12:18PM 38.6417 -112.7008 214° Southwest 456 525 36,000  Level Salt Lake Center
12:19PM 38.5369 -112.7892 213° Southwest 455 524 36,000  Level Salt Lake Center
12:20PM 38.4322 -112.8775 213° Southwest 453 521 36,000  Level Salt Lake Center
12:21PM 38.3267 -112.9683 214° Southwest 457 526 36,000  Level Salt Lake Center
12:22PM 38.2006 -113.0739 213° Southwest 455 524 36,000  Level Salt Lake Center
12:23PM 38.0958 -113.1628 214° Southwest 455 524 36,000  Level Salt Lake Center
12:24PM 37.9914 -113.2494 213° Southwest 453 521 36,000  Level Salt Lake Center
12:25PM 37.8889 -113.3347 213° Southwest 447 514 36,000  Level Salt Lake Center
12:26PM 37.7875 -113.4194 213° Southwest 443 510 36,000  Level Salt Lake Center
12:27PM 37.6653 -113.5200 213° Southwest 441 507 36,000  Level Salt Lake Center
12:28PM 37.5844 -113.5869 213° Southwest 441 507 36,000  Level Los Angeles Center
12:29PM 37.4614 -113.6850 212° Southwest 440 506 36,000  Level Los Angeles Center
12:30PM 37.3608 -113.7683 213° Southwest 436 502 36,000  Level Los Angeles Center
12:31PM 37.2583 -113.8506 213° Southwest 438 504 36,000  Level Los Angeles Center
12:32PM 37.1431 -113.9450 213° Southwest 437 503 36,000  Level Los Angeles Center
12:33PM 37.0422 -114.0275 213° Southwest 434 499 36,000  Level Los Angeles Center
12:34PM 36.9392 -114.1103 213° Southwest 437 503 36,000  Level Los Angeles Center
12:35PM 36.8367 -114.1928 213° Southwest 437 503 36,000  Level Los Angeles Center
12:36PM 36.7342 -114.2744 213° Southwest 436 502 36,000  Level Los Angeles Center
12:37PM 36.6306 -114.3589 213° Southwest 442 509 36,000  Level Los Angeles Center
12:38PM 36.5275 -114.4422 213° Southwest 441 507 36,000  Level Los Angeles Center
12:39PM 36.4025 -114.5414 213° Southwest 442 509 36,000  Level Los Angeles Center
12:40PM 36.2981 -114.6239 212° Southwest 442 509 36,000  Level Los Angeles Center
12:42PM 36.1731 -114.7222 212° Southwest 441 507 36,000  Level Los Angeles Center
12:43PM 36.0700 -114.8044 213° Southwest 439 505 36,000  Level Los Angeles Center
12:44PM 35.9714 -114.8939 216° Southwest 438 504 36,000  Level Los Angeles Center
12:45PM 35.8908 -115.0036 228° Southwest 429 494 36,000  Level Los Angeles Center
12:46PM 35.8114 -115.1133 228° Southwest 427 491 36,000  Level Los Angeles Center
12:47PM 35.7169 -115.2425 228° Southwest 423 487 36,000  Level Los Angeles Center
12:48PM 35.6222 -115.3703 228° Southwest 419 482 36,000  Level Los Angeles Center
12:49PM 35.5450 -115.4747 228° Southwest 413 475 36,000  Level Los Angeles Center
12:50PM 35.4661 -115.5792 227° Southwest 414 476 36,000  Level Los Angeles Center
12:51PM 35.3847 -115.6881 228° Southwest 413 475 36,000  Level Los Angeles Center
12:52PM 35.3011 -115.7822 223° Southwest 409 471 36,000  Level Los Angeles Center
12:53PM 35.2169 -115.8783 223° Southwest 414 476 36,000  Level Los Angeles Center
12:54PM 35.1331 -115.9733 223° Southwest 412 474 36,000  Level Los Angeles Center
12:55PM 35.0489 -116.0681 223° Southwest 411 473 36,000  Level Los Angeles Center
12:56PM 34.9478 -116.1800 222° Southwest 409 471 36,000  Level Los Angeles Center
12:57PM 34.8628 -116.2744 222° Southwest 412 474 36,000  Level Los Angeles Center
12:58PM 34.7792 -116.3678 223° Southwest 408 470 36,000  Level Los Angeles Center
12:59PM 34.6953 -116.4614 223° Southwest 409 471 36,000 -1,020 Level Los Angeles Center
01:00PM 34.6114 -116.5533 222° Southwest 406 467 33,900 -2,640 Descending Los Angeles Center
01:01PM 34.5267 -116.6478 223° Southwest 411 473 30,600 -3,240 Descending Los Angeles Center
01:02PM 34.4408 -116.7422 222° Southwest 415 478 27,300 -3,120 Descending Los Angeles Center
01:03PM 34.3381 -116.8544 222° Southwest 413 475 24,200 -2,760 Descending Los Angeles Center
01:05PM 34.2542 -116.9464 222° Southwest 408 470 21,600 -2,520 Descending Los Angeles Center
01:06PM 34.1722 -117.0361 222° Southwest 398 458 19,100 -1,800 Descending Los Angeles Center
01:07PM 34.1000 -117.1333 228° Southwest 359 413 17,900 -600 Descending Southern California TRACON
01:08PM 34.0500 -117.2500 243° Southwest 353 406 17,900 -1,200 Level Southern California TRACON
01:09PM 34.0333 -117.3667 260° West 350 403 15,600 -2,220 Descending Southern California TRACON
01:10PM 34.0333 -117.4833 270° West 324 373 13,500 -1,560 Descending Southern California TRACON
01:11PM 34.0333 -117.5833 270° West 295 339 12,500 -1,140 Descending Southern California TRACON
01:12PM 34.0167 -117.6667 256° West 268 308 11,300 -1,320 Descending Southern California TRACON
01:13PM 34.0167 -117.7667 270° West 277 319 10,100 -1,740 Descending Southern California TRACON
01:14PM 34.0000 -117.8500 256° West 285 328 8,100 -1,620 Descending Southern California TRACON
01:15PM 34.0000 -117.9500 270° West 272 313 6,800 -1,140 Descending Southern California TRACON
01:16PM 33.9833 -118.0333 256° West 234 269 5,900 -1,200 Descending Southern California TRACON
01:17PM 33.9833 -118.1000 270° West 229 264 4,500 -1,200 Descending Southern California TRACON
01:18PM 33.9667 -118.1833 256° West 213 245 3,500 -900 Descending Southern California TRACON
01:19PM 33.9667 -118.2500 270° West 204 235 2,700 -960 Descending Southern California TRACON
01:20PM 33.9667 -118.3167 270° West 190 219 1,600 -960 Descending Southern California TRACON
01:20PM 33.9589 -118.3397 248° West 197 227 1,300 -720 Descending Los Angeles Center
01:21PM 33.9550 -118.3856 264° West 160 184 500 -540 Descending Los Angeles Center
01:22PM 33.9500 -118.4278 262° West 151 174 200 -300 Descending Los Angeles Center
01:24PM 33.9425 -118.4081 259° West  Level Estimated